sensor_id;sensor_type;location;lat;lon;timestamp;P1;durP1;ratioP1;P2;durP2;ratioP2
65071;SDS011;51663;52.310;17.016;2024-01-30T00:00:39;98.03;;;36.50;;
65071;SDS011;51663;52.310;17.016;2024-01-30T00:04:01;81.97;;;30.50;;
65071;SDS011;51663;52.310;17.016;2024-01-30T00:07:04;66.23;;;28.17;;
65071;SDS011;51663;52.310;17.016;2024-01-30T00:10:07;71.70;;;29.57;;
65071;SDS011;51663;52.310;17.016;2024-01-30T00:13:09;72.17;;;30.40;;
65071;SDS011;51663;52.310;17.016;2024-01-30T00:16:20;101.53;;;35.73;;
65071;SDS011;51663;52.310;17.016;2024-01-30T00:19:23;86.47;;;33.93;;
65071;SDS011;51663;52.310;17.016;2024-01-30T00:22:26;73.67;;;30.30;;
65071;SDS011;51663;52.310;17.016;2024-01-30T00:25:28;68.47;;;28.57;;
65071;SDS011;51663;52.310;17.016;2024-01-30T00:28:30;61.53;;;26.37;;
65071;SDS011;51663;52.310;17.016;2024-01-30T00:31:33;72.87;;;28.30;;
65071;SDS011;51663;52.310;17.016;2024-01-30T00:34:38;68.30;;;27.47;;
65071;SDS011;51663;52.310;17.016;2024-01-30T00:37:41;100.43;;;37.87;;
65071;SDS011;51663;52.310;17.016;2024-01-30T00:40:43;76.13;;;32.00;;
65071;SDS011;51663;52.310;17.016;2024-01-30T00:43:46;79.43;;;31.00;;
65071;SDS011;51663;52.310;17.016;2024-01-30T00:46:48;70.90;;;29.87;;
65071;SDS011;51663;52.310;17.016;2024-01-30T00:49:50;62.13;;;27.07;;
65071;SDS011;51663;52.310;17.016;2024-01-30T00:52:53;54.47;;;25.73;;
65071;SDS011;51663;52.310;17.016;2024-01-30T00:55:55;50.37;;;23.47;;
65071;SDS011;51663;52.310;17.016;2024-01-30T00:58:57;47.63;;;22.93;;
65071;SDS011;51663;52.310;17.016;2024-01-30T01:02:00;50.90;;;23.80;;
65071;SDS011;51663;52.310;17.016;2024-01-30T01:05:03;56.53;;;25.07;;
65071;SDS011;51663;52.310;17.016;2024-01-30T01:08:07;51.53;;;24.50;;
65071;SDS011;51663;52.310;17.016;2024-01-30T01:11:09;56.30;;;24.87;;
65071;SDS011;51663;52.310;17.016;2024-01-30T01:14:11;52.63;;;23.60;;
65071;SDS011;51663;52.310;17.016;2024-01-30T01:17:13;55.13;;;23.93;;
65071;SDS011;51663;52.310;17.016;2024-01-30T01:20:16;59.37;;;27.53;;
65071;SDS011;51663;52.310;17.016;2024-01-30T01:23:18;54.17;;;25.57;;
65071;SDS011;51663;52.310;17.016;2024-01-30T01:26:21;51.17;;;22.57;;
65071;SDS011;51663;52.310;17.016;2024-01-30T01:29:23;50.80;;;24.83;;
65071;SDS011;51663;52.310;17.016;2024-01-30T01:32:31;63.50;;;25.33;;
65071;SDS011;51663;52.310;17.016;2024-01-30T01:35:33;49.80;;;22.90;;
65071;SDS011;51663;52.310;17.016;2024-01-30T01:38:35;65.67;;;25.93;;
65071;SDS011;51663;52.310;17.016;2024-01-30T01:41:38;63.63;;;25.03;;
65071;SDS011;51663;52.310;17.016;2024-01-30T01:44:40;57.17;;;24.03;;
65071;SDS011;51663;52.310;17.016;2024-01-30T01:47:42;56.13;;;24.53;;
65071;SDS011;51663;52.310;17.016;2024-01-30T01:50:47;51.83;;;23.27;;
65071;SDS011;51663;52.310;17.016;2024-01-30T01:53:50;56.47;;;24.57;;
65071;SDS011;51663;52.310;17.016;2024-01-30T01:56:53;55.37;;;23.60;;
65071;SDS011;51663;52.310;17.016;2024-01-30T01:59:55;56.30;;;24.60;;
65071;SDS011;51663;52.310;17.016;2024-01-30T02:02:58;54.93;;;24.87;;
65071;SDS011;51663;52.310;17.016;2024-01-30T02:06:01;57.73;;;25.80;;
65071;SDS011;51663;52.310;17.016;2024-01-30T02:09:05;52.50;;;24.93;;
65071;SDS011;51663;52.310;17.016;2024-01-30T02:12:09;54.43;;;24.93;;
65071;SDS011;51663;52.310;17.016;2024-01-30T02:15:13;52.67;;;22.90;;
65071;SDS011;51663;52.310;17.016;2024-01-30T02:18:15;47.23;;;21.17;;
65071;SDS011;51663;52.310;17.016;2024-01-30T02:21:18;52.33;;;23.30;;
65071;SDS011;51663;52.310;17.016;2024-01-30T02:24:21;52.37;;;23.20;;
65071;SDS011;51663;52.310;17.016;2024-01-30T02:27:23;47.90;;;22.90;;
65071;SDS011;51663;52.310;17.016;2024-01-30T02:30:25;47.77;;;22.40;;
65071;SDS011;51663;52.310;17.016;2024-01-30T02:33:27;43.37;;;20.83;;
65071;SDS011;51663;52.310;17.016;2024-01-30T02:36:29;45.47;;;21.13;;
65071;SDS011;51663;52.310;17.016;2024-01-30T02:39:32;41.97;;;20.20;;
65071;SDS011;51663;52.310;17.016;2024-01-30T02:42:34;40.53;;;18.50;;
65071;SDS011;51663;52.310;17.016;2024-01-30T02:45:37;41.93;;;19.20;;
65071;SDS011;51663;52.310;17.016;2024-01-30T02:48:39;36.93;;;17.37;;
65071;SDS011;51663;52.310;17.016;2024-01-30T02:51:41;37.67;;;18.27;;
65071;SDS011;51663;52.310;17.016;2024-01-30T02:54:43;37.07;;;18.23;;
65071;SDS011;51663;52.310;17.016;2024-01-30T02:57:46;35.97;;;17.27;;
65071;SDS011;51663;52.310;17.016;2024-01-30T03:00:48;40.80;;;18.73;;
65071;SDS011;51663;52.310;17.016;2024-01-30T03:03:51;38.00;;;18.67;;
65071;SDS011;51663;52.310;17.016;2024-01-30T03:06:53;36.43;;;17.83;;
65071;SDS011;51663;52.310;17.016;2024-01-30T03:09:56;37.90;;;18.47;;
65071;SDS011;51663;52.310;17.016;2024-01-30T03:12:58;34.23;;;17.93;;
65071;SDS011;51663;52.310;17.016;2024-01-30T03:16:01;36.63;;;18.97;;
65071;SDS011;51663;52.310;17.016;2024-01-30T03:19:05;32.93;;;17.47;;
65071;SDS011;51663;52.310;17.016;2024-01-30T03:22:09;35.50;;;17.33;;
65071;SDS011;51663;52.310;17.016;2024-01-30T03:25:12;43.30;;;19.87;;
65071;SDS011;51663;52.310;17.016;2024-01-30T03:28:14;36.97;;;19.20;;
65071;SDS011;51663;52.310;17.016;2024-01-30T03:31:16;39.63;;;19.20;;
65071;SDS011;51663;52.310;17.016;2024-01-30T03:34:19;37.27;;;18.70;;
65071;SDS011;51663;52.310;17.016;2024-01-30T03:37:21;37.37;;;18.93;;
65071;SDS011;51663;52.310;17.016;2024-01-30T03:40:24;36.27;;;17.73;;
65071;SDS011;51663;52.310;17.016;2024-01-30T03:43:26;37.70;;;17.27;;
65071;SDS011;51663;52.310;17.016;2024-01-30T03:46:29;34.93;;;16.77;;
65071;SDS011;51663;52.310;17.016;2024-01-30T03:49:31;34.60;;;18.23;;
65071;SDS011;51663;52.310;17.016;2024-01-30T03:52:33;36.93;;;17.87;;
65071;SDS011;51663;52.310;17.016;2024-01-30T03:55:35;35.67;;;17.63;;
65071;SDS011;51663;52.310;17.016;2024-01-30T03:58:38;39.87;;;18.10;;
65071;SDS011;51663;52.310;17.016;2024-01-30T04:01:40;32.77;;;17.50;;
65071;SDS011;51663;52.310;17.016;2024-01-30T04:04:42;36.60;;;17.60;;
65071;SDS011;51663;52.310;17.016;2024-01-30T04:07:45;32.50;;;17.07;;
65071;SDS011;51663;52.310;17.016;2024-01-30T04:10:47;36.07;;;16.77;;
65071;SDS011;51663;52.310;17.016;2024-01-30T04:13:49;31.57;;;16.73;;
65071;SDS011;51663;52.310;17.016;2024-01-30T04:16:52;30.13;;;16.10;;
65071;SDS011;51663;52.310;17.016;2024-01-30T04:19:54;34.63;;;17.43;;
65071;SDS011;51663;52.310;17.016;2024-01-30T04:22:57;40.10;;;18.00;;
65071;SDS011;51663;52.310;17.016;2024-01-30T04:25:59;36.40;;;17.70;;
65071;SDS011;51663;52.310;17.016;2024-01-30T04:29:02;34.77;;;17.87;;
65071;SDS011;51663;52.310;17.016;2024-01-30T04:32:04;34.03;;;16.90;;
65071;SDS011;51663;52.310;17.016;2024-01-30T04:35:07;32.20;;;17.13;;
65071;SDS011;51663;52.310;17.016;2024-01-30T04:38:12;34.90;;;17.93;;
65071;SDS011;51663;52.310;17.016;2024-01-30T04:41:16;34.33;;;17.10;;
65071;SDS011;51663;52.310;17.016;2024-01-30T04:44:18;31.80;;;16.90;;
65071;SDS011;51663;52.310;17.016;2024-01-30T04:47:21;35.50;;;16.83;;
65071;SDS011;51663;52.310;17.016;2024-01-30T04:50:23;30.60;;;16.77;;
65071;SDS011;51663;52.310;17.016;2024-01-30T04:53:26;37.97;;;17.77;;
65071;SDS011;51663;52.310;17.016;2024-01-30T04:56:28;39.43;;;18.90;;
65071;SDS011;51663;52.310;17.016;2024-01-30T04:59:30;35.83;;;17.23;;
65071;SDS011;51663;52.310;17.016;2024-01-30T05:02:33;42.07;;;18.17;;
65071;SDS011;51663;52.310;17.016;2024-01-30T05:05:35;48.63;;;21.43;;
65071;SDS011;51663;52.310;17.016;2024-01-30T05:08:37;58.87;;;24.83;;
65071;SDS011;51663;52.310;17.016;2024-01-30T05:11:40;57.70;;;23.50;;
65071;SDS011;51663;52.310;17.016;2024-01-30T05:14:42;60.57;;;24.17;;
65071;SDS011;51663;52.310;17.016;2024-01-30T05:17:45;52.77;;;21.33;;
65071;SDS011;51663;52.310;17.016;2024-01-30T05:20:47;51.43;;;21.70;;
65071;SDS011;51663;52.310;17.016;2024-01-30T05:23:49;51.13;;;22.33;;
65071;SDS011;51663;52.310;17.016;2024-01-30T05:26:51;45.03;;;20.67;;
65071;SDS011;51663;52.310;17.016;2024-01-30T05:29:54;55.43;;;20.97;;
65071;SDS011;51663;52.310;17.016;2024-01-30T05:32:56;45.27;;;20.37;;
65071;SDS011;51663;52.310;17.016;2024-01-30T05:35:58;38.00;;;17.70;;
65071;SDS011;51663;52.310;17.016;2024-01-30T05:39:00;34.03;;;16.93;;
65071;SDS011;51663;52.310;17.016;2024-01-30T05:42:04;39.13;;;17.37;;
65071;SDS011;51663;52.310;17.016;2024-01-30T05:45:07;38.20;;;17.47;;
65071;SDS011;51663;52.310;17.016;2024-01-30T05:48:10;36.07;;;18.20;;
65071;SDS011;51663;52.310;17.016;2024-01-30T05:51:12;34.63;;;16.80;;
65071;SDS011;51663;52.310;17.016;2024-01-30T05:54:15;39.27;;;19.53;;
65071;SDS011;51663;52.310;17.016;2024-01-30T05:57:18;37.00;;;17.37;;
65071;SDS011;51663;52.310;17.016;2024-01-30T06:00:21;36.20;;;17.53;;
65071;SDS011;51663;52.310;17.016;2024-01-30T06:03:23;33.57;;;16.77;;
65071;SDS011;51663;52.310;17.016;2024-01-30T06:06:25;38.10;;;17.17;;
65071;SDS011;51663;52.310;17.016;2024-01-30T06:09:27;33.07;;;15.50;;
65071;SDS011;51663;52.310;17.016;2024-01-30T06:12:30;34.37;;;16.07;;
65071;SDS011;51663;52.310;17.016;2024-01-30T06:15:32;30.53;;;15.77;;
65071;SDS011;51663;52.310;17.016;2024-01-30T06:18:35;30.37;;;14.97;;
65071;SDS011;51663;52.310;17.016;2024-01-30T06:21:37;31.70;;;15.27;;
65071;SDS011;51663;52.310;17.016;2024-01-30T06:24:40;25.50;;;14.27;;
65071;SDS011;51663;52.310;17.016;2024-01-30T06:27:42;28.93;;;15.17;;
65071;SDS011;51663;52.310;17.016;2024-01-30T06:30:45;26.30;;;14.47;;
65071;SDS011;51663;52.310;17.016;2024-01-30T06:33:47;30.17;;;14.50;;
65071;SDS011;51663;52.310;17.016;2024-01-30T06:36:49;29.33;;;15.57;;
65071;SDS011;51663;52.310;17.016;2024-01-30T06:39:52;33.63;;;15.73;;
65071;SDS011;51663;52.310;17.016;2024-01-30T06:42:54;27.90;;;14.03;;
65071;SDS011;51663;52.310;17.016;2024-01-30T06:45:56;32.53;;;15.53;;
65071;SDS011;51663;52.310;17.016;2024-01-30T06:48:59;24.73;;;15.30;;
65071;SDS011;51663;52.310;17.016;2024-01-30T06:52:01;28.10;;;15.03;;
65071;SDS011;51663;52.310;17.016;2024-01-30T06:55:04;28.07;;;14.57;;
65071;SDS011;51663;52.310;17.016;2024-01-30T06:58:06;29.23;;;14.67;;
65071;SDS011;51663;52.310;17.016;2024-01-30T07:01:08;25.77;;;14.70;;
65071;SDS011;51663;52.310;17.016;2024-01-30T07:04:11;26.20;;;14.37;;
65071;SDS011;51663;52.310;17.016;2024-01-30T07:07:14;23.10;;;13.70;;
65071;SDS011;51663;52.310;17.016;2024-01-30T07:10:17;28.03;;;14.07;;
65071;SDS011;51663;52.310;17.016;2024-01-30T07:13:20;24.80;;;13.80;;
65071;SDS011;51663;52.310;17.016;2024-01-30T07:16:23;26.83;;;13.80;;
65071;SDS011;51663;52.310;17.016;2024-01-30T07:19:25;29.60;;;15.43;;
65071;SDS011;51663;52.310;17.016;2024-01-30T07:22:28;25.83;;;14.70;;
65071;SDS011;51663;52.310;17.016;2024-01-30T07:25:30;20.97;;;13.37;;
65071;SDS011;51663;52.310;17.016;2024-01-30T07:28:33;27.07;;;14.17;;
65071;SDS011;51663;52.310;17.016;2024-01-30T07:31:37;30.40;;;14.60;;
65071;SDS011;51663;52.310;17.016;2024-01-30T07:34:39;34.13;;;15.03;;
65071;SDS011;51663;52.310;17.016;2024-01-30T07:37:59;25.60;;;13.97;;
65071;SDS011;51663;52.310;17.016;2024-01-30T07:41:01;28.97;;;14.20;;
65071;SDS011;51663;52.310;17.016;2024-01-30T07:44:04;22.03;;;14.17;;
65071;SDS011;51663;52.310;17.016;2024-01-30T07:47:06;24.97;;;14.40;;
65071;SDS011;51663;52.310;17.016;2024-01-30T07:50:09;27.43;;;15.77;;
65071;SDS011;51663;52.310;17.016;2024-01-30T07:53:11;30.37;;;16.27;;
65071;SDS011;51663;52.310;17.016;2024-01-30T07:56:14;50.63;;;25.00;;
65071;SDS011;51663;52.310;17.016;2024-01-30T07:59:17;36.67;;;18.27;;
65071;SDS011;51663;52.310;17.016;2024-01-30T08:02:21;25.97;;;14.50;;
65071;SDS011;51663;52.310;17.016;2024-01-30T08:05:23;26.63;;;13.63;;
65071;SDS011;51663;52.310;17.016;2024-01-30T08:08:26;23.73;;;13.00;;
65071;SDS011;51663;52.310;17.016;2024-01-30T08:11:28;22.93;;;13.30;;
65071;SDS011;51663;52.310;17.016;2024-01-30T08:14:31;22.90;;;12.50;;
65071;SDS011;51663;52.310;17.016;2024-01-30T08:17:33;21.07;;;12.10;;
65071;SDS011;51663;52.310;17.016;2024-01-30T08:20:36;22.40;;;12.57;;
65071;SDS011;51663;52.310;17.016;2024-01-30T08:23:38;18.70;;;12.20;;
65071;SDS011;51663;52.310;17.016;2024-01-30T08:26:41;23.17;;;13.17;;
65071;SDS011;51663;52.310;17.016;2024-01-30T08:29:43;20.03;;;12.27;;
65071;SDS011;51663;52.310;17.016;2024-01-30T08:32:46;25.37;;;13.80;;
65071;SDS011;51663;52.310;17.016;2024-01-30T08:35:48;19.17;;;12.53;;
65071;SDS011;51663;52.310;17.016;2024-01-30T08:38:51;22.17;;;14.00;;
65071;SDS011;51663;52.310;17.016;2024-01-30T08:41:58;26.43;;;13.80;;
65071;SDS011;51663;52.310;17.016;2024-01-30T08:45:00;25.20;;;14.57;;
65071;SDS011;51663;52.310;17.016;2024-01-30T08:48:02;25.73;;;16.43;;
65071;SDS011;51663;52.310;17.016;2024-01-30T08:51:05;30.10;;;15.63;;
65071;SDS011;51663;52.310;17.016;2024-01-30T08:54:09;31.83;;;14.50;;
65071;SDS011;51663;52.310;17.016;2024-01-30T08:57:12;31.00;;;13.97;;
65071;SDS011;51663;52.310;17.016;2024-01-30T09:00:14;28.03;;;14.53;;
65071;SDS011;51663;52.310;17.016;2024-01-30T09:03:17;39.33;;;16.83;;
65071;SDS011;51663;52.310;17.016;2024-01-30T09:06:19;33.10;;;16.07;;
65071;SDS011;51663;52.310;17.016;2024-01-30T09:09:27;63.33;;;22.63;;
65071;SDS011;51663;52.310;17.016;2024-01-30T09:12:43;65.37;;;21.00;;
65071;SDS011;51663;52.310;17.016;2024-01-30T09:15:46;42.53;;;18.73;;
65071;SDS011;51663;52.310;17.016;2024-01-30T09:18:48;44.40;;;18.53;;
65071;SDS011;51663;52.310;17.016;2024-01-30T09:21:51;36.90;;;17.27;;
65071;SDS011;51663;52.310;17.016;2024-01-30T09:24:55;36.33;;;17.87;;
65071;SDS011;51663;52.310;17.016;2024-01-30T09:27:58;31.33;;;16.77;;
65071;SDS011;51663;52.310;17.016;2024-01-30T09:31:01;34.57;;;16.80;;
65071;SDS011;51663;52.310;17.016;2024-01-30T09:34:03;25.60;;;15.33;;
65071;SDS011;51663;52.310;17.016;2024-01-30T09:37:06;19.43;;;12.97;;
65071;SDS011;51663;52.310;17.016;2024-01-30T09:40:09;23.27;;;13.97;;
65071;SDS011;51663;52.310;17.016;2024-01-30T09:43:13;24.87;;;14.23;;
65071;SDS011;51663;52.310;17.016;2024-01-30T09:46:20;24.77;;;13.10;;
65071;SDS011;51663;52.310;17.016;2024-01-30T09:49:24;22.63;;;12.93;;
65071;SDS011;51663;52.310;17.016;2024-01-30T09:52:27;20.37;;;12.00;;
65071;SDS011;51663;52.310;17.016;2024-01-30T09:55:30;20.57;;;12.00;;
65071;SDS011;51663;52.310;17.016;2024-01-30T09:58:32;20.17;;;11.77;;
65071;SDS011;51663;52.310;17.016;2024-01-30T10:01:35;21.03;;;12.27;;
65071;SDS011;51663;52.310;17.016;2024-01-30T10:04:38;19.67;;;13.07;;
65071;SDS011;51663;52.310;17.016;2024-01-30T10:07:49;20.30;;;11.87;;
65071;SDS011;51663;52.310;17.016;2024-01-30T10:10:54;17.50;;;10.97;;
65071;SDS011;51663;52.310;17.016;2024-01-30T10:13:57;19.87;;;11.77;;
65071;SDS011;51663;52.310;17.016;2024-01-30T10:17:00;19.10;;;11.17;;
65071;SDS011;51663;52.310;17.016;2024-01-30T10:20:07;21.43;;;12.27;;
65071;SDS011;51663;52.310;17.016;2024-01-30T10:23:10;21.83;;;13.80;;
65071;SDS011;51663;52.310;17.016;2024-01-30T10:26:13;22.37;;;12.00;;
65071;SDS011;51663;52.310;17.016;2024-01-30T10:29:19;28.77;;;12.13;;
65071;SDS011;51663;52.310;17.016;2024-01-30T10:32:21;21.63;;;10.70;;
65071;SDS011;51663;52.310;17.016;2024-01-30T10:35:23;108.10;;;24.37;;
65071;SDS011;51663;52.310;17.016;2024-01-30T10:38:26;23.27;;;13.03;;
65071;SDS011;51663;52.310;17.016;2024-01-30T10:41:31;21.27;;;11.87;;
65071;SDS011;51663;52.310;17.016;2024-01-30T10:47:49;20.83;;;12.00;;
65071;SDS011;51663;52.310;17.016;2024-01-30T10:50:51;16.90;;;11.50;;
65071;SDS011;51663;52.310;17.016;2024-01-30T10:54:02;19.57;;;12.00;;
65071;SDS011;51663;52.310;17.016;2024-01-30T10:57:06;16.97;;;11.13;;
65071;SDS011;51663;52.310;17.016;2024-01-30T11:00:11;16.67;;;11.63;;
65071;SDS011;51663;52.310;17.016;2024-01-30T11:03:17;17.13;;;11.27;;
65071;SDS011;51663;52.310;17.016;2024-01-30T11:06:23;14.77;;;10.20;;
65071;SDS011;51663;52.310;17.016;2024-01-30T11:09:28;17.37;;;11.03;;
65071;SDS011;51663;52.310;17.016;2024-01-30T11:12:31;16.33;;;11.40;;
65071;SDS011;51663;52.310;17.016;2024-01-30T11:15:37;16.13;;;10.57;;
65071;SDS011;51663;52.310;17.016;2024-01-30T11:18:40;18.90;;;11.23;;
65071;SDS011;51663;52.310;17.016;2024-01-30T11:21:42;17.10;;;10.67;;
65071;SDS011;51663;52.310;17.016;2024-01-30T11:24:45;20.23;;;11.23;;
65071;SDS011;51663;52.310;17.016;2024-01-30T11:27:49;18.27;;;10.57;;
65071;SDS011;51663;52.310;17.016;2024-01-30T11:31:02;16.57;;;10.67;;
65071;SDS011;51663;52.310;17.016;2024-01-30T11:34:11;17.93;;;10.57;;
65071;SDS011;51663;52.310;17.016;2024-01-30T11:37:16;13.50;;;9.77;;
65071;SDS011;51663;52.310;17.016;2024-01-30T11:40:23;16.43;;;10.83;;
65071;SDS011;51663;52.310;17.016;2024-01-30T11:43:28;20.50;;;11.53;;
65071;SDS011;51663;52.310;17.016;2024-01-30T11:46:30;17.70;;;11.63;;
65071;SDS011;51663;52.310;17.016;2024-01-30T11:49:32;20.27;;;11.43;;
65071;SDS011;51663;52.310;17.016;2024-01-30T11:52:34;26.67;;;14.20;;
65071;SDS011;51663;52.310;17.016;2024-01-30T11:55:37;21.73;;;13.23;;
65071;SDS011;51663;52.310;17.016;2024-01-30T11:58:42;18.87;;;11.23;;
65071;SDS011;51663;52.310;17.016;2024-01-30T12:01:46;23.40;;;12.83;;
65071;SDS011;51663;52.310;17.016;2024-01-30T12:04:48;21.87;;;12.30;;
65071;SDS011;51663;52.310;17.016;2024-01-30T12:07:50;22.63;;;12.90;;
65071;SDS011;51663;52.310;17.016;2024-01-30T12:10:59;20.40;;;11.20;;
65071;SDS011;51663;52.310;17.016;2024-01-30T12:14:07;115.23;;;26.87;;
65071;SDS011;51663;52.310;17.016;2024-01-30T12:17:09;32.23;;;13.60;;
65071;SDS011;51663;52.310;17.016;2024-01-30T12:20:13;25.77;;;12.13;;
65071;SDS011;51663;52.310;17.016;2024-01-30T12:23:17;28.27;;;12.83;;
65071;SDS011;51663;52.310;17.016;2024-01-30T12:26:21;24.73;;;12.57;;
65071;SDS011;51663;52.310;17.016;2024-01-30T12:29:23;20.23;;;12.60;;
65071;SDS011;51663;52.310;17.016;2024-01-30T12:32:29;17.83;;;11.63;;
65071;SDS011;51663;52.310;17.016;2024-01-30T12:35:32;20.03;;;11.70;;
65071;SDS011;51663;52.310;17.016;2024-01-30T12:38:36;18.80;;;11.60;;
65071;SDS011;51663;52.310;17.016;2024-01-30T12:41:38;19.33;;;12.07;;
65071;SDS011;51663;52.310;17.016;2024-01-30T12:44:41;16.13;;;11.23;;
65071;SDS011;51663;52.310;17.016;2024-01-30T12:47:43;18.00;;;10.80;;
65071;SDS011;51663;52.310;17.016;2024-01-30T12:50:46;21.00;;;12.07;;
65071;SDS011;51663;52.310;17.016;2024-01-30T12:53:48;18.53;;;11.63;;
65071;SDS011;51663;52.310;17.016;2024-01-30T12:56:51;22.63;;;11.37;;
65071;SDS011;51663;52.310;17.016;2024-01-30T12:59:53;22.07;;;11.47;;
65071;SDS011;51663;52.310;17.016;2024-01-30T13:02:55;22.90;;;11.87;;
65071;SDS011;51663;52.310;17.016;2024-01-30T13:05:58;17.80;;;11.70;;
65071;SDS011;51663;52.310;17.016;2024-01-30T13:09:01;16.60;;;11.60;;
65071;SDS011;51663;52.310;17.016;2024-01-30T13:12:04;17.70;;;10.97;;
65071;SDS011;51663;52.310;17.016;2024-01-30T13:15:06;15.97;;;10.73;;
65071;SDS011;51663;52.310;17.016;2024-01-30T13:18:09;18.73;;;11.93;;
65071;SDS011;51663;52.310;17.016;2024-01-30T13:21:12;19.80;;;12.87;;
65071;SDS011;51663;52.310;17.016;2024-01-30T13:24:14;21.10;;;11.80;;
65071;SDS011;51663;52.310;17.016;2024-01-30T13:27:17;20.37;;;12.73;;
65071;SDS011;51663;52.310;17.016;2024-01-30T13:30:19;22.37;;;13.40;;
65071;SDS011;51663;52.310;17.016;2024-01-30T13:33:22;24.80;;;14.03;;
65071;SDS011;51663;52.310;17.016;2024-01-30T13:36:24;34.57;;;15.70;;
65071;SDS011;51663;52.310;17.016;2024-01-30T13:39:27;52.70;;;23.50;;
65071;SDS011;51663;52.310;17.016;2024-01-30T13:42:36;58.33;;;24.70;;
65071;SDS011;51663;52.310;17.016;2024-01-30T13:45:39;44.33;;;20.13;;
65071;SDS011;51663;52.310;17.016;2024-01-30T13:48:44;30.57;;;16.90;;
65071;SDS011;51663;52.310;17.016;2024-01-30T13:51:47;27.77;;;15.27;;
65071;SDS011;51663;52.310;17.016;2024-01-30T13:54:50;28.30;;;15.13;;
65071;SDS011;51663;52.310;17.016;2024-01-30T13:57:52;28.57;;;15.27;;
65071;SDS011;51663;52.310;17.016;2024-01-30T14:01:03;29.33;;;15.40;;
65071;SDS011;51663;52.310;17.016;2024-01-30T14:04:06;33.10;;;16.77;;
65071;SDS011;51663;52.310;17.016;2024-01-30T14:07:12;30.50;;;16.20;;
65071;SDS011;51663;52.310;17.016;2024-01-30T14:10:15;25.23;;;13.57;;
65071;SDS011;51663;52.310;17.016;2024-01-30T14:13:19;21.60;;;13.77;;
65071;SDS011;51663;52.310;17.016;2024-01-30T14:16:21;26.97;;;14.47;;
65071;SDS011;51663;52.310;17.016;2024-01-30T14:19:23;23.83;;;13.77;;
65071;SDS011;51663;52.310;17.016;2024-01-30T14:22:26;24.50;;;14.93;;
65071;SDS011;51663;52.310;17.016;2024-01-30T14:25:28;24.20;;;14.03;;
65071;SDS011;51663;52.310;17.016;2024-01-30T14:28:31;26.27;;;13.83;;
65071;SDS011;51663;52.310;17.016;2024-01-30T14:31:33;26.37;;;14.83;;
65071;SDS011;51663;52.310;17.016;2024-01-30T14:34:35;23.63;;;13.97;;
65071;SDS011;51663;52.310;17.016;2024-01-30T14:37:37;23.20;;;14.63;;
65071;SDS011;51663;52.310;17.016;2024-01-30T14:40:41;27.73;;;15.50;;
65071;SDS011;51663;52.310;17.016;2024-01-30T14:43:43;26.50;;;15.67;;
65071;SDS011;51663;52.310;17.016;2024-01-30T14:46:46;29.87;;;17.43;;
65071;SDS011;51663;52.310;17.016;2024-01-30T14:49:48;31.93;;;17.10;;
65071;SDS011;51663;52.310;17.016;2024-01-30T14:52:51;27.80;;;14.90;;
65071;SDS011;51663;52.310;17.016;2024-01-30T14:55:53;26.67;;;14.93;;
65071;SDS011;51663;52.310;17.016;2024-01-30T14:58:56;22.70;;;15.20;;
65071;SDS011;51663;52.310;17.016;2024-01-30T15:01:58;26.10;;;14.37;;
65071;SDS011;51663;52.310;17.016;2024-01-30T15:05:00;25.10;;;14.70;;
65071;SDS011;51663;52.310;17.016;2024-01-30T15:08:03;33.23;;;15.67;;
65071;SDS011;51663;52.310;17.016;2024-01-30T15:11:06;37.77;;;20.23;;
65071;SDS011;51663;52.310;17.016;2024-01-30T15:14:08;39.07;;;19.33;;
65071;SDS011;51663;52.310;17.016;2024-01-30T15:17:12;40.80;;;18.67;;
65071;SDS011;51663;52.310;17.016;2024-01-30T15:20:14;34.93;;;18.10;;
65071;SDS011;51663;52.310;17.016;2024-01-30T15:23:20;39.70;;;18.40;;
65071;SDS011;51663;52.310;17.016;2024-01-30T15:26:22;35.93;;;17.03;;
65071;SDS011;51663;52.310;17.016;2024-01-30T15:29:28;28.00;;;16.17;;
65071;SDS011;51663;52.310;17.016;2024-01-30T15:32:30;29.57;;;16.13;;
65071;SDS011;51663;52.310;17.016;2024-01-30T15:35:33;33.07;;;17.07;;
65071;SDS011;51663;52.310;17.016;2024-01-30T15:38:35;35.83;;;17.60;;
65071;SDS011;51663;52.310;17.016;2024-01-30T15:41:38;32.97;;;17.77;;
65071;SDS011;51663;52.310;17.016;2024-01-30T15:44:40;32.00;;;17.43;;
65071;SDS011;51663;52.310;17.016;2024-01-30T15:47:44;31.03;;;17.13;;
65071;SDS011;51663;52.310;17.016;2024-01-30T15:50:47;35.03;;;18.00;;
65071;SDS011;51663;52.310;17.016;2024-01-30T15:53:50;37.57;;;18.20;;
65071;SDS011;51663;52.310;17.016;2024-01-30T15:56:52;30.63;;;18.33;;
65071;SDS011;51663;52.310;17.016;2024-01-30T15:59:56;35.33;;;18.57;;
65071;SDS011;51663;52.310;17.016;2024-01-30T16:02:59;36.10;;;19.27;;
65071;SDS011;51663;52.310;17.016;2024-01-30T16:06:03;38.30;;;18.83;;
65071;SDS011;51663;52.310;17.016;2024-01-30T16:09:06;39.77;;;19.37;;
65071;SDS011;51663;52.310;17.016;2024-01-30T16:12:08;39.37;;;19.00;;
65071;SDS011;51663;52.310;17.016;2024-01-30T16:15:11;38.70;;;18.50;;
65071;SDS011;51663;52.310;17.016;2024-01-30T16:18:17;42.17;;;19.70;;
65071;SDS011;51663;52.310;17.016;2024-01-30T16:21:20;37.40;;;18.60;;
65071;SDS011;51663;52.310;17.016;2024-01-30T16:24:24;42.93;;;18.63;;
65071;SDS011;51663;52.310;17.016;2024-01-30T16:27:27;43.03;;;20.47;;
65071;SDS011;51663;52.310;17.016;2024-01-30T16:30:30;50.13;;;21.27;;
65071;SDS011;51663;52.310;17.016;2024-01-30T16:33:32;50.47;;;21.60;;
65071;SDS011;51663;52.310;17.016;2024-01-30T16:36:35;43.10;;;21.47;;
65071;SDS011;51663;52.310;17.016;2024-01-30T16:39:38;46.60;;;22.33;;
65071;SDS011;51663;52.310;17.016;2024-01-30T16:42:41;52.73;;;24.50;;
65071;SDS011;51663;52.310;17.016;2024-01-30T16:45:45;54.17;;;28.60;;
65071;SDS011;51663;52.310;17.016;2024-01-30T16:48:47;60.53;;;29.27;;
65071;SDS011;51663;52.310;17.016;2024-01-30T16:51:52;63.47;;;30.27;;
65071;SDS011;51663;52.310;17.016;2024-01-30T16:54:54;63.77;;;28.90;;
65071;SDS011;51663;52.310;17.016;2024-01-30T16:57:57;68.50;;;29.50;;
65071;SDS011;51663;52.310;17.016;2024-01-30T17:00:59;65.77;;;27.83;;
65071;SDS011;51663;52.310;17.016;2024-01-30T17:04:02;61.67;;;27.57;;
65071;SDS011;51663;52.310;17.016;2024-01-30T17:07:05;64.20;;;27.10;;
65071;SDS011;51663;52.310;17.016;2024-01-30T17:10:07;65.90;;;28.93;;
65071;SDS011;51663;52.310;17.016;2024-01-30T17:13:10;69.13;;;31.63;;
65071;SDS011;51663;52.310;17.016;2024-01-30T17:16:15;56.93;;;27.67;;
65071;SDS011;51663;52.310;17.016;2024-01-30T17:19:21;62.70;;;28.53;;
65071;SDS011;51663;52.310;17.016;2024-01-30T17:22:23;72.60;;;33.30;;
65071;SDS011;51663;52.310;17.016;2024-01-30T17:25:26;54.37;;;30.50;;
65071;SDS011;51663;52.310;17.016;2024-01-30T17:28:28;61.87;;;31.03;;
65071;SDS011;51663;52.310;17.016;2024-01-30T17:31:31;47.13;;;24.63;;
65071;SDS011;51663;52.310;17.016;2024-01-30T17:34:35;49.27;;;25.43;;
65071;SDS011;51663;52.310;17.016;2024-01-30T17:37:40;51.30;;;26.73;;